TimeEST,TemperatureF,Dew PointF,Humidity,Sea Level PressureIn,VisibilityMPH,Wind Direction,Wind SpeedMPH,Gust SpeedMPH,PrecipitationIn,Events,Conditions,WindDirDegrees,DateUTC
12:50 AM,28.4,28.4,100,-9999,0.1,West,52.9,-,N/A,Fog,Light Freezing Fog,280,2011-11-17 05:50:00
1:47 AM,26.6,26.6,100,-9999,0.0,West,50.6,59.8,N/A,Fog,Light Freezing Fog,280,2011-11-17 06:47:00
2:53 AM,26.6,26.6,100,-9999,0.0,West,50.6,55.2,N/A,Fog-Snow,Light Snow Grains,280,2011-11-17 07:53:00
3:51 AM,23.0,23.0,100,-9999,0.0,WNW,52.9,-,N/A,Fog,Light Freezing Fog,290,2011-11-17 08:51:00
4:54 AM,19.4,19.4,100,-9999,0.1,WNW,49.5,-,N/A,Fog,Light Freezing Fog,290,2011-11-17 09:54:00
5:54 AM,15.8,-16.6,23,-9999,90.0,WNW,49.5,57.5,N/A,,Overcast,290,2011-11-17 10:54:00
6:53 AM,15.8,8.6,73,-9999,90.0,WNW,42.6,50.6,N/A,,Overcast,290,2011-11-17 11:53:00
7:57 AM,14.0,8.6,79,-9999,80.0,WNW,48.3,-,N/A,,Overcast,300,2011-11-17 12:57:00
8:55 AM,14.0,10.4,86,-9999,75.0,WNW,50.6,-,N/A,,Overcast,290,2011-11-17 13:55:00
9:54 AM,15.8,12.2,86,-9999,75.0,WNW,46.0,-,N/A,,Mostly Cloudy,300,2011-11-17 14:54:00
10:49 AM,15.8,15.8,100,-9999,0.1,WNW,44.9,-,N/A,Fog,Light Freezing Fog,290,2011-11-17 15:49:00
11:51 AM,14.0,14.0,100,-9999,0.1,WNW,40.3,50.6,N/A,Fog,Light Freezing Fog,300,2011-11-17 16:51:00
12:54 PM,15.8,15.8,100,-9999,0.1,WNW,42.6,47.2,N/A,Fog,Light Freezing Fog,290,2011-11-17 17:54:00
1:52 PM,14.0,14.0,100,-9999,0.1,WNW,42.6,-,N/A,Fog,Light Freezing Fog,290,2011-11-17 18:52:00
2:53 PM,14.0,14.0,100,-9999,0.1,WNW,41.4,-,N/A,Fog,Light Freezing Fog,290,2011-11-17 19:53:00
3:51 PM,14.0,14.0,100,-9999,0.0,WNW,44.9,-,N/A,Fog,Light Freezing Fog,290,2011-11-17 20:51:00
4:53 PM,14.0,14.0,100,-9999,0.0,WNW,35.7,41.4,N/A,Fog,Light Freezing Fog,300,2011-11-17 21:53:00
5:57 PM,14.0,14.0,100,-9999,0.1,WNW,42.6,47.2,N/A,Fog,Light Freezing Fog,290,2011-11-17 22:57:00
6:51 PM,14.0,14.0,100,-9999,0.1,WNW,41.4,51.8,N/A,Fog,Light Freezing Fog,300,2011-11-17 23:51:00
7:50 PM,14.0,14.0,100,-9999,0.1,WNW,43.7,52.9,N/A,Fog,Light Freezing Fog,290,2011-11-18 00:50:00
8:51 PM,12.2,12.2,100,-9999,0.1,WNW,41.4,54.1,N/A,Fog-Snow,Snow Showers,290,2011-11-18 01:51:00
9:54 PM,12.2,12.2,100,-9999,0.0,WNW,52.9,64.4,N/A,Fog-Snow,Light Snow Showers,300,2011-11-18 02:54:00
10:52 PM,12.2,12.2,100,-9999,0.0,WNW,61.0,66.7,N/A,Fog-Snow,Light Snow Showers,300,2011-11-18 03:52:00
11:52 PM,10.4,10.4,100,-9999,0.0,WNW,54.1,63.3,N/A,Fog-Snow,Light Snow Showers,300,2011-11-18 04:52:00